createdAt,value
2022-10-23T00:19:46.704Z,9.58
2022-10-23T00:23:49.777Z,9.58
2022-10-23T00:27:52.684Z,9.59
2022-10-23T00:31:55.622Z,9.63
2022-10-23T00:36:00.100Z,9.64
2022-10-23T00:40:03.077Z,9.68
2022-10-23T00:44:10.258Z,9.73
2022-10-23T00:48:13.844Z,9.78
2022-10-23T00:52:18.408Z,9.79
2022-10-23T00:56:21.404Z,9.79
2022-10-23T01:00:28.062Z,9.77
2022-10-23T01:04:31.515Z,9.76
2022-10-23T01:08:43.951Z,9.77
2022-10-23T01:12:53.643Z,9.75
2022-10-23T01:17:07.253Z,9.72
2022-10-23T01:21:21.908Z,9.67
2022-10-23T01:25:45.937Z,9.60
2022-10-23T01:30:03.261Z,9.58
2022-10-23T01:34:15.455Z,9.56
2022-10-23T01:38:25.543Z,9.54
2022-10-23T01:42:35.716Z,9.48
2022-10-23T01:46:41.336Z,9.43
2022-10-23T01:50:48.073Z,9.41
2022-10-23T01:54:54.702Z,9.37
2022-10-23T01:59:01.112Z,9.36
2022-10-23T02:03:10.625Z,9.33
2022-10-23T02:07:13.834Z,9.29
2022-10-23T02:11:19.982Z,9.26
2022-10-23T02:15:29.906Z,9.24
2022-10-23T02:19:42.611Z,9.20
2022-10-23T02:23:53.842Z,9.16
2022-10-23T02:28:02.090Z,9.09
2022-10-23T02:32:16.636Z,9.03
2022-10-23T02:36:21.413Z,9.03
2022-10-23T02:40:28.052Z,9.04
2022-10-23T02:44:42.618Z,9.05
2022-10-23T02:48:54.444Z,9.03
2022-10-23T02:53:06.227Z,8.96
2022-10-23T02:57:19.419Z,8.91
2022-10-23T03:01:29.243Z,8.91
2022-10-23T03:05:35.651Z,8.93
2022-10-23T03:09:40.008Z,8.92
2022-10-23T03:13:43.306Z,8.90
2022-10-23T03:17:46.637Z,8.87
2022-10-23T03:21:51.230Z,8.85
2022-10-23T03:25:56.481Z,8.84
2022-10-23T03:30:12.542Z,8.79
2022-10-23T03:34:16.861Z,8.73
2022-10-23T03:38:20.123Z,8.71
2022-10-23T03:42:24.675Z,8.70
2022-10-23T03:46:27.764Z,8.65
2022-10-23T03:50:31.103Z,8.60
2022-10-23T03:54:34.940Z,8.57
2022-10-23T03:58:39.333Z,8.48
2022-10-23T04:02:43.625Z,8.46
2022-10-23T04:06:47.091Z,8.44
2022-10-23T04:10:50.427Z,8.39
2022-10-23T04:14:58.201Z,8.38
2022-10-23T04:19:01.568Z,8.33
2022-10-23T04:23:05.778Z,8.27
2022-10-23T04:27:10.583Z,8.21
2022-10-23T04:31:15.035Z,8.09
2022-10-23T04:35:19.267Z,8.03
2022-10-23T04:39:22.634Z,7.97
2022-10-23T04:43:26.506Z,7.93
2022-10-23T04:47:30.909Z,7.93
2022-10-23T04:51:35.773Z,7.90
2022-10-23T04:56:00.359Z,7.87
2022-10-23T05:00:22.243Z,7.87
2022-10-23T05:04:31.706Z,7.85
2022-10-23T05:08:53.058Z,7.82
2022-10-23T05:13:34.357Z,7.76
2022-10-23T05:17:41.610Z,7.69
2022-10-23T05:21:48.293Z,7.65
2022-10-23T05:25:51.430Z,7.63
2022-10-23T05:29:54.410Z,7.56
2022-10-23T05:34:01.863Z,7.51
2022-10-23T05:38:08.413Z,7.47
2022-10-23T05:42:12.957Z,7.46
2022-10-23T05:46:17.232Z,7.46
2022-10-23T05:50:22.859Z,7.41
2022-10-23T05:54:53.466Z,7.39
2022-10-23T05:59:01.587Z,7.39
2022-10-23T06:03:22.868Z,7.38
2022-10-23T06:07:27.715Z,7.36
2022-10-23T06:11:35.266Z,7.36
2022-10-23T06:15:44.445Z,7.36
2022-10-23T06:19:53.859Z,7.36
2022-10-23T06:23:57.290Z,7.37
2022-10-23T06:28:10.835Z,7.39
2022-10-23T06:32:14.651Z,7.41
2022-10-23T06:36:24.925Z,7.38
2022-10-23T06:40:32.595Z,7.39
2022-10-23T06:44:40.196Z,7.46
2022-10-23T06:48:47.295Z,7.47
2022-10-23T06:52:57.802Z,7.48
2022-10-23T06:57:01.383Z,7.46
2022-10-23T07:01:17.457Z,7.53
2022-10-23T07:05:21.894Z,7.57
2022-10-23T07:09:25.299Z,7.63
2022-10-23T07:13:28.245Z,7.64
2022-10-23T07:17:39.189Z,7.65
2022-10-23T07:21:42.361Z,7.69
2022-10-23T07:26:17.946Z,7.74
2022-10-23T07:30:20.953Z,7.84
2022-10-23T07:34:29.747Z,7.91
2022-10-23T07:38:49.754Z,7.92
2022-10-23T07:42:52.828Z,7.91
2022-10-23T07:46:55.848Z,7.91
2022-10-23T07:51:03.058Z,7.94
2022-10-23T07:55:07.425Z,7.97
2022-10-23T07:59:13.724Z,8.03
2022-10-23T08:03:19.045Z,8.11
2022-10-23T08:07:24.624Z,8.23
2022-10-23T08:11:35.339Z,8.34
2022-10-23T08:15:40.732Z,8.38
2022-10-23T08:19:54.867Z,8.46
2022-10-23T08:24:01.330Z,8.49
2022-10-23T08:28:08.702Z,8.57
2022-10-23T08:32:19.899Z,8.67
2022-10-23T08:36:36.430Z,8.74
2022-10-23T08:40:45.932Z,8.82
2022-10-23T08:45:18.219Z,8.88
2022-10-23T08:49:31.952Z,8.96
2022-10-23T08:53:45.476Z,9.07
2022-10-23T08:57:58.340Z,9.19
2022-10-23T09:02:05.707Z,9.26
2022-10-23T09:06:17.718Z,9.34
2022-10-23T09:10:38.618Z,9.40
2022-10-23T09:15:04.165Z,9.49
2022-10-23T09:19:18.649Z,9.60
2022-10-23T09:23:24.026Z,9.68
2022-10-23T09:27:26.986Z,9.79
2022-10-23T09:31:31.343Z,9.86
2022-10-23T09:35:34.287Z,9.90
2022-10-23T09:39:37.806Z,9.91
2022-10-23T09:43:41.089Z,9.95
2022-10-23T09:47:46.218Z,9.96
2022-10-23T09:51:55.128Z,10.01
2022-10-23T09:56:00.612Z,10.07
2022-10-23T10:00:07.613Z,10.18
2022-10-23T10:04:18.759Z,10.27
2022-10-23T10:08:26.585Z,10.36
2022-10-23T10:12:44.437Z,10.47
2022-10-23T10:16:52.841Z,10.57
2022-10-23T10:21:06.565Z,10.68
2022-10-23T10:25:17.475Z,10.74
2022-10-23T10:29:30.741Z,10.78
2022-10-23T10:33:40.923Z,10.81
2022-10-23T10:37:58.309Z,10.82
2022-10-23T10:42:22.712Z,10.88
2022-10-23T10:46:34.634Z,10.89
2022-10-23T10:50:45.741Z,11.02
2022-10-23T10:55:19.689Z,11.09
2022-10-23T10:59:25.710Z,11.17
2022-10-23T11:03:39.201Z,11.26
2022-10-23T11:07:53.842Z,11.40
2022-10-23T11:11:58.218Z,11.41
2022-10-23T11:16:05.640Z,11.41
2022-10-23T11:20:22.968Z,11.46
2022-10-23T11:25:22.698Z,11.56
2022-10-23T11:29:57.250Z,11.63
2022-10-23T11:34:20.521Z,11.76
2022-10-23T11:38:28.050Z,11.90
2022-10-23T11:42:33.396Z,11.98
2022-10-23T11:46:39.182Z,12.00
2022-10-23T11:50:53.502Z,12.04
2022-10-23T11:55:02.507Z,12.04
2022-10-23T11:59:23.653Z,12.02
2022-10-23T12:03:33.436Z,11.98
2022-10-23T12:07:39.380Z,11.98
2022-10-23T12:11:45.244Z,11.97
2022-10-23T12:15:58.460Z,11.98
2022-10-23T12:20:20.648Z,11.94
2022-10-23T12:24:44.223Z,11.90
2022-10-23T12:28:55.357Z,11.82
2022-10-23T12:33:22.602Z,11.76
2022-10-23T12:37:54.669Z,11.77
2022-10-23T12:41:58.571Z,11.78
2022-10-23T12:46:06.249Z,11.77
2022-10-23T12:50:19.632Z,11.82
2022-10-23T12:54:24.622Z,11.86
2022-10-23T12:58:30.639Z,11.92
2022-10-23T13:02:36.221Z,11.99
2022-10-23T13:06:49.343Z,12.00
2022-10-23T13:10:54.103Z,12.07
2022-10-23T13:15:03.360Z,12.12
2022-10-23T13:19:06.515Z,12.16
2022-10-23T13:23:12.938Z,12.18
2022-10-23T13:27:32.825Z,12.17
2022-10-23T13:31:36.273Z,12.17
2022-10-23T13:35:39.351Z,12.20
2022-10-23T13:39:42.316Z,12.18
2022-10-23T13:43:48.439Z,12.18
2022-10-23T13:47:51.849Z,12.22
2022-10-23T13:51:56.807Z,12.24
2022-10-23T13:55:59.850Z,12.29
2022-10-23T14:00:05.479Z,12.25
2022-10-23T14:04:15.851Z,12.23
2022-10-23T14:08:18.869Z,12.17
2022-10-23T14:12:22.099Z,12.15
2022-10-23T14:16:26.698Z,12.19
2022-10-23T14:20:30.373Z,12.16
2022-10-23T14:24:33.410Z,12.13
2022-10-23T14:28:37.113Z,12.12
2022-10-23T14:32:42.086Z,12.07
2022-10-23T14:36:50.450Z,12.06
2022-10-23T14:40:59.618Z,12.08
2022-10-23T14:45:03.018Z,12.08
2022-10-23T14:49:07.657Z,12.07
2022-10-23T14:53:11.064Z,12.11
2022-10-23T14:57:16.658Z,12.15
2022-10-23T15:01:19.742Z,12.18
2022-10-23T15:05:24.352Z,12.20
2022-10-23T15:09:27.366Z,12.21
2022-10-23T15:13:30.903Z,12.23
2022-10-23T15:17:34.147Z,12.24
2022-10-23T15:21:38.785Z,12.25
2022-10-23T15:25:42.093Z,12.25
2022-10-23T15:29:45.252Z,12.23
2022-10-23T15:33:48.290Z,12.25
2022-10-23T15:37:52.695Z,12.22
2022-10-23T15:41:57.643Z,12.20
2022-10-23T15:46:00.708Z,12.19
2022-10-23T15:50:03.681Z,12.20
2022-10-23T15:54:09.891Z,12.21
2022-10-23T15:58:12.874Z,12.22
2022-10-23T16:02:15.938Z,12.21
2022-10-23T16:06:20.279Z,12.18
2022-10-23T16:10:24.992Z,12.16
2022-10-23T16:14:27.994Z,12.13
2022-10-23T16:18:31.019Z,12.11
2022-10-23T16:22:34.083Z,12.11
2022-10-23T16:26:39.462Z,12.08
2022-10-23T16:30:42.789Z,12.09
2022-10-23T16:34:46.614Z,12.10
2022-10-23T16:38:49.675Z,12.08
2022-10-23T16:42:54.058Z,12.03
2022-10-23T16:47:04.490Z,12.02
2022-10-23T16:51:09.153Z,12.04
2022-10-23T16:55:12.281Z,12.04
2022-10-23T16:59:16.791Z,12.04
2022-10-23T17:03:19.890Z,12.05
2022-10-23T17:07:24.197Z,12.05
2022-10-23T17:11:28.775Z,12.06
2022-10-23T17:15:33.214Z,12.07
2022-10-23T17:19:45.010Z,12.08
2022-10-23T17:23:50.061Z,12.09
2022-10-23T17:27:53.157Z,12.11
2022-10-23T17:31:57.983Z,12.10
2022-10-23T17:36:02.912Z,12.06
2022-10-23T17:40:07.108Z,12.03
2022-10-23T17:44:10.412Z,12.04
2022-10-23T17:48:16.889Z,12.07
2022-10-23T17:52:20.096Z,12.10
2022-10-23T17:56:24.829Z,12.11
2022-10-23T18:00:27.867Z,12.13
2022-10-23T18:04:32.971Z,12.15
2022-10-23T18:08:36.064Z,12.16
2022-10-23T18:12:39.207Z,12.18
2022-10-23T18:16:42.834Z,12.17
2022-10-23T18:20:47.256Z,12.16
2022-10-23T18:25:06.504Z,12.15
2022-10-23T18:29:13.662Z,12.11
2022-10-23T18:33:17.545Z,12.11
2022-10-23T18:37:21.941Z,12.08
2022-10-23T18:41:25.768Z,12.06
2022-10-23T18:45:28.802Z,12.06
2022-10-23T18:49:31.885Z,12.05
2022-10-23T18:53:36.525Z,12.04
2022-10-23T18:57:39.692Z,12.06
2022-10-23T19:01:43.734Z,12.04
2022-10-23T19:05:48.560Z,12.03
2022-10-23T19:09:53.271Z,12.03
2022-10-23T19:13:56.377Z,12.04
2022-10-23T19:17:59.798Z,12.05
2022-10-23T19:22:04.895Z,12.05
2022-10-23T19:26:12.427Z,12.07
2022-10-23T19:30:19.310Z,12.09
2022-10-23T19:34:25.747Z,12.14
2022-10-23T19:38:29.254Z,12.13
2022-10-23T19:42:34.322Z,12.14
2022-10-23T19:46:37.589Z,12.15
2022-10-23T19:50:42.699Z,12.12
2022-10-23T19:54:46.331Z,12.11
2022-10-23T19:58:51.815Z,12.07
2022-10-23T20:02:55.457Z,12.06
2022-10-23T20:06:58.766Z,12.06
2022-10-23T20:11:01.802Z,12.06
2022-10-23T20:15:07.546Z,12.08
2022-10-23T20:19:12.608Z,12.09
2022-10-23T20:23:15.686Z,12.10
2022-10-23T20:27:19.564Z,12.12
2022-10-23T20:31:25.803Z,12.11
2022-10-23T20:35:28.832Z,12.09
2022-10-23T20:39:35.578Z,12.11
2022-10-23T20:43:38.728Z,12.13
2022-10-23T20:47:43.466Z,12.15
2022-10-23T20:51:54.761Z,12.15
2022-10-23T20:55:58.576Z,12.17
2022-10-23T21:00:03.175Z,12.19
2022-10-23T21:04:07.874Z,12.16
2022-10-23T21:08:10.967Z,12.13
2022-10-23T21:12:14.002Z,12.16
2022-10-23T21:16:18.892Z,12.19
2022-10-23T21:20:23.304Z,12.20
2022-10-23T21:24:26.308Z,12.23
2022-10-23T21:28:29.412Z,12.25
2022-10-23T21:32:32.403Z,12.25
2022-10-23T21:36:48.591Z,12.24
2022-10-23T21:41:07.472Z,12.24
2022-10-23T21:45:11.242Z,12.22
2022-10-23T21:49:14.320Z,12.20
2022-10-23T21:53:18.683Z,12.20
2022-10-23T21:57:22.264Z,12.23
2022-10-23T22:01:25.560Z,12.24
2022-10-23T22:05:28.611Z,12.24
2022-10-23T22:09:34.106Z,12.25
2022-10-23T22:13:37.141Z,12.25
2022-10-23T22:17:40.196Z,12.25
2022-10-23T22:21:43.499Z,12.24
2022-10-23T22:25:47.912Z,12.26
2022-10-23T22:29:51.004Z,12.27
2022-10-23T22:33:56.662Z,12.30
2022-10-23T22:38:00.106Z,12.28
2022-10-23T22:42:04.727Z,12.30
2022-10-23T22:46:09.522Z,12.31
2022-10-23T22:50:12.576Z,12.34
2022-10-23T22:54:15.770Z,12.36
2022-10-23T22:58:20.235Z,12.38
2022-10-23T23:02:23.392Z,12.39
2022-10-23T23:06:26.835Z,12.42
2022-10-23T23:10:29.824Z,12.42
2022-10-23T23:14:34.412Z,12.41
2022-10-23T23:18:37.646Z,12.41
2022-10-23T23:22:40.716Z,12.42
2022-10-23T23:26:43.835Z,12.44
2022-10-23T23:30:49.168Z,12.45
2022-10-23T23:34:52.251Z,12.45
2022-10-23T23:38:57.069Z,12.44
2022-10-23T23:43:00.144Z,12.45
2022-10-23T23:47:04.585Z,12.47
2022-10-23T23:51:07.842Z,12.48
2022-10-23T23:55:11.447Z,12.48
2022-10-23T23:59:14.711Z,12.48
